Briefing drone pour La roche-sur-foron

Rechercher une autre localisation

Conditions de vol :


Nous sommes le : Dimanche 29 janvier 2023
Il est 01:35 UTC (02:35 LT)

Lever de soleil : 06:34 UTC (07:34 LT)
Coucher de soleil : 17:01 UTC (18:01 LT)

Météo

L'essentiel des conditions de vol

VIGILANCE MÉTÉO FRANCE - Haute-Savoie (74)
Pas de vigilances particulieres
CARTE TEMSI
CARTES DES FRONTS
METAR de LFLP
LFLP 290130Z AUTO 00000KT 9999 OVC037 M01/M04 Q1023

Date d'émission: 29/01/2023
Heure d'émission: 01:30 UTC
Vent: Calme
Visibilité horizontale: > 10 km
Plafond :
- Couvert à 3700ft (1128m)
Température: -1 °C
Point de rosée: -4 °C
Humidité: 80%
Pression (QNH): 1023 hPa
TAF de LFLP
AMD LFLP 281901Z 2819/2915 CNL

Conditions prévues :

Heure d'émission : Bulletin éffectué le 28 à 19:00 UTC
Prévision : Valide du 28 a 19:00 UTC au 29 a 15:00 UTC
Nuages : à 0ft (0 m)
WEBCAM POUR LA ROCHE-SUR-FORON

Réglementation

Voler en sécurité

CARTES AERONAUTIQUE 1/500.000
CARTE AZBA (Reseau basse altitude)
CARTES VAC (LFLP)
SUP AIP




Chargement des AIP...
NOTAM (LA ROCHE-SUR-FORON + Terrain à proximité / FIR )




Chargement des NOTAMS...
CONTACT PREFECTURE 74
Haute-Savoie (74) : [email protected]


Avertissement : Les données mises à disposition sont indicatives. Oxygène Drone ne pourra être tenu responsable de dégâts causés aux biens et aux personnes.